Current Weather

Jiyanklis New

Jiyanklis New, Egypt (HEGS)

Report from: Thursday, November 24, 2022 11:00 AM UTC
Current time: Sunday, December 4, 2022 11:09 AM UTC

Nearby weather
Weather history
Weather forecast

Temperature40.0°C (104.0°F)
Heat index38.2°C (100.7°F)
Dew point9.0°C (48.2°F)
Winds 6 kts (3.1 m/s, 6.9 mph) South-Southeast (150°)
Clouds Sky clear
Altimeter29.80 in.Hg (1009 mB)
Relative humidity16 %
Density altitude3,116 ft. (950 m)
Remarks Ceiling and visibility OK
No significant changes expected in the next two hours
Flight conditions Visual Meteorological Conditions
Raw dataHEGS 241100Z 15006KT CAVOK 40/09 Q1009 NOSIG
An error has occurred. This application may no longer respond until reloaded. Reload 🗙